Time;durP1;ratioP1;P1;durP2;ratioP2;P2;SDS_P1;SDS_P2;PMS_P1;PMS_P2;Temp;Humidity;BMP_temperature;BMP_pressure;BME280_temperature;BME280_humidity;BME280_pressure;Samples;Min_cycle;Max_cycle;Signal;HPM_P1;HPM_P2
2022/09/23 00:04:45;;;;;;;8.52;4.78;;;;;;;7.62;100.00;100606.91;20728128;28;20762;-75
2022/09/23 00:14:46;;;;;;;9.70;4.75;;;;;;;7.43;100.00;100595.63;20729523;28;20177;-76
2022/09/23 00:24:48;;;;;;;7.80;4.50;;;;;;;7.43;100.00;100601.69;20728581;28;20558;-74
2022/09/23 00:34:50;;;;;;;9.10;4.80;;;;;;;7.51;100.00;100598.22;20728161;28;20137;-74
2022/09/23 00:44:52;;;;;;;11.85;5.32;;;;;;;7.42;100.00;100596.47;20727281;28;20074;-74
2022/09/23 00:54:54;;;;;;;8.70;4.50;;;;;;;7.37;100.00;100591.25;20727234;28;20049;-74
2022/09/23 01:04:56;;;;;;;7.40;4.50;;;;;;;7.17;100.00;100587.78;20725142;28;20497;-74
2022/09/23 01:14:57;;;;;;;9.68;4.95;;;;;;;7.15;100.00;100585.19;20725233;28;20050;-74
2022/09/23 01:24:59;;;;;;;10.68;5.55;;;;;;;7.05;100.00;100583.44;20724522;28;20089;-74
2022/09/23 01:35:00;;;;;;;11.52;5.38;;;;;;;6.89;100.00;100574.69;20724312;28;20140;-74
2022/09/23 01:45:01;;;;;;;10.55;5.30;;;;;;;6.87;100.00;100571.25;20723901;28;20147;-75
2022/09/23 01:55:03;;;;;;;11.05;5.60;;;;;;;6.90;100.00;100571.25;20722874;28;20069;-75
2022/09/23 02:05:04;;;;;;;9.55;4.90;;;;;;;6.94;100.00;100565.16;20722122;28;20459;-74
2022/09/23 02:15:05;;;;;;;8.63;5.13;;;;;;;6.85;100.00;100565.19;20722375;28;20074;-75
2022/09/23 02:25:06;;;;;;;8.85;5.30;;;;;;;6.62;100.00;100557.31;20722259;28;20049;-74
2022/09/23 02:35:09;;;;;;;8.25;5.38;;;;;;;6.54;100.00;100558.16;20736605;28;20081;-74
2022/09/23 02:45:10;;;;;;;9.45;5.53;;;;;;;6.55;100.00;100549.47;20736242;28;20081;-76
2022/09/23 02:55:11;;;;;;;9.13;5.57;;;;;;;6.42;100.00;100533.84;20736425;28;20152;-75
2022/09/23 03:05:13;;;;;;;9.65;5.60;;;;;;;6.34;100.00;100529.47;20736076;28;20054;-74
2022/09/23 03:15:15;;;;;;;8.68;5.38;;;;;;;6.36;100.00;100527.72;20734232;28;20474;-74
2022/09/23 03:25:16;;;;;;;10.13;5.38;;;;;;;6.27;100.00;100544.16;20732938;28;20414;-74
2022/09/23 03:35:17;;;;;;;9.05;5.15;;;;;;;6.13;100.00;100538.94;20731873;28;20065;-74
2022/09/23 03:45:19;;;;;;;8.63;5.40;;;;;;;6.05;100.00;100534.56;20730666;28;20486;-76
2022/09/23 03:55:20;;;;;;;10.50;5.80;;;;;;;6.01;100.00;100522.41;20730129;28;20288;-75
2022/09/23 04:05:21;;;;;;;9.38;5.90;;;;;;;6.06;100.00;100518.09;20727041;28;20061;-75
2022/09/23 04:15:23;;;;;;;9.43;5.47;;;;;;;6.04;100.00;100520.69;20728880;28;20086;-74
2022/09/23 04:25:24;;;;;;;8.68;5.30;;;;;;;6.03;100.00;100525.88;20729462;28;20081;-77
2022/09/23 04:35:25;;;;;;;9.07;5.95;;;;;;;5.92;100.00;100533.59;20728502;28;20120;-77
2022/09/23 04:45:28;;;;;;;11.75;5.95;;;;;;;5.82;100.00;100532.66;20727406;28;20096;-76
2022/09/23 04:55:29;;;;;;;19.17;9.98;;;;;;;5.88;100.00;100537.00;20726044;28;20064;-75
2022/09/23 05:05:31;;;;;;;14.57;8.43;;;;;;;5.99;100.00;100531.91;20725588;28;20519;-74
2022/09/23 05:15:33;;;;;;;9.77;6.38;;;;;;;6.03;100.00;100536.25;20725515;28;20077;-74
2022/09/23 05:25:34;;;;;;;9.88;6.40;;;;;;;6.06;100.00;100533.69;20725333;28;20080;-74
2022/09/23 05:35:38;;;;;;;8.03;5.67;;;;;;;6.21;100.00;100543.28;20724236;28;20072;-74
2022/09/23 05:45:40;;;;;;;12.07;6.22;;;;;;;6.42;100.00;100539.03;20724043;28;20056;-74
2022/09/23 05:55:41;;;;;;;10.15;5.90;;;;;;;6.67;100.00;100549.53;20724002;28;20085;-76
2022/09/23 06:05:42;;;;;;;14.95;7.80;;;;;;;6.93;100.00;100546.97;20733369;28;20124;-74
2022/09/23 06:15:44;;;;;;;9.73;6.57;;;;;;;7.10;100.00;100557.41;20740345;28;20097;-74
2022/09/23 06:25:45;;;;;;;14.85;6.93;;;;;;;7.29;100.00;100551.34;20738935;28;20693;-74
2022/09/23 06:35:46;;;;;;;15.43;7.03;;;;;;;7.52;100.00;100540.91;20738103;28;20520;-77
2022/09/23 06:45:59;;;;;;;9.98;6.70;;;;;;;7.62;100.00;100544.38;20738127;28;20562;-74
2022/09/23 06:56:01;;;;;;;9.23;6.10;;;;;;;7.70;100.00;100547.81;20737647;28;20081;-75
2022/09/23 07:06:03;;;;;;;16.48;8.88;;;;;;;7.88;100.00;100542.56;20735954;28;20049;-77
2022/09/23 07:16:04;;;;;;;12.88;7.50;;;;;;;8.15;100.00;100543.38;20735716;28;20065;-75
2022/09/23 07:26:06;;;;;;;10.80;7.53;;;;;;;8.51;100.00;100559.75;20731384;28;20092;-75
2022/09/23 07:36:08;;;;;;;10.90;7.40;;;;;;;8.86;100.00;100549.13;20710413;28;20065;-75
2022/09/23 07:46:09;;;;;;;14.40;8.70;;;;;;;9.29;100.00;100560.13;20702317;28;20100;-76
2022/09/23 07:56:11;;;;;;;12.38;7.53;;;;;;;9.54;100.00;100557.34;20707807;28;20076;-75
2022/09/23 08:06:13;;;;;;;13.18;6.65;;;;;;;9.84;100.00;100561.41;20713756;28;20454;-74
2022/09/23 08:16:14;;;;;;;9.90;6.65;;;;;;;10.35;100.00;100570.47;20730026;28;20077;-75
2022/09/23 08:26:16;;;;;;;16.52;7.95;;;;;;;10.94;100.00;100560.06;20729099;28;20061;-74
2022/09/23 08:36:22;;;;;;;10.75;6.82;;;;;;;11.00;100.00;100568.69;20728666;28;20510;-74
2022/09/23 08:46:23;;;;;;;11.02;6.90;;;;;;;11.35;100.00;100556.78;20727438;28;20081;-74
2022/09/23 08:56:25;;;;;;;11.63;6.75;;;;;;;11.84;100.00;100548.13;20727024;28;20068;-74
2022/09/23 09:06:26;;;;;;;10.20;6.35;;;;;;;12.15;100.00;100545.75;20888798;23;20077;-73
2022/09/23 09:16:27;;;;;;;11.45;5.95;;;;;;;12.52;100.00;100548.50;20808231;28;20084;-71
2022/09/23 09:26:49;;;;;;;8.85;4.93;;;;;;;13.00;100.00;100536.94;20808453;28;20183;-71
2022/09/23 09:36:50;;;;;;;9.32;4.20;;;;;;;13.57;100.00;100507.50;20807133;28;20084;-71
2022/09/23 09:46:51;;;;;;;8.88;4.22;;;;;;;14.04;96.25;100508.84;20806934;28;20057;-69
2022/09/23 09:56:53;;;;;;;9.95;4.13;;;;;;;14.27;99.60;100491.47;20804395;28;20052;-71
2022/09/23 10:06:54;;;;;;;10.00;3.90;;;;;;;14.58;95.40;100486.19;20805243;28;20069;-71
2022/09/23 10:16:56;;;;;;;6.88;3.50;;;;;;;14.97;91.99;100470.88;20805379;28;20080;-72
2022/09/23 10:26:58;;;;;;;9.00;4.20;;;;;;;15.13;93.13;100465.97;20802191;28;20687;-74
2022/09/23 10:36:59;;;;;;;6.78;3.70;;;;;;;15.56;93.16;100449.53;20804476;28;20093;-71
2022/09/23 10:47:00;;;;;;;12.77;4.88;;;;;;;15.74;88.69;100431.34;20807105;28;20107;-71
2022/09/23 10:57:36;;;;;;;6.50;3.30;;;;;;;16.00;92.23;100433.91;20817890;28;20077;-72
2022/09/23 11:07:23;;;;;;;8.77;3.78;;;;;;;16.45;92.31;100425.09;20817442;28;20337;-71
2022/09/23 11:17:25;;;;;;;6.45;3.25;;;;;;;16.68;85.11;100422.41;20816433;28;20077;-72
2022/09/23 11:27:27;;;;;;;5.57;3.15;;;;;;;16.65;83.87;100411.09;20818683;28;20135;-72
2022/09/23 11:37:28;;;;;;;5.85;3.10;;;;;;;16.79;88.90;100392.06;20815699;28;20502;-72
2022/09/23 11:47:29;;;;;;;6.88;3.00;;;;;;;16.95;84.19;100384.31;20815511;28;20114;-71
2022/09/23 11:57:31;;;;;;;5.63;2.60;;;;;;;17.14;78.15;100370.25;20813925;28;20053;-72
2022/09/23 12:07:46;;;;;;;4.35;2.28;;;;;;;17.51;80.49;100363.34;20812419;28;20104;-71
2022/09/23 12:17:48;;;;;;;6.32;2.42;;;;;;;17.84;78.64;100346.88;20813657;28;20045;-72
2022/09/23 12:27:49;;;;;;;5.43;2.33;;;;;;;18.18;75.85;100336.41;20812273;28;20417;-71
2022/09/23 12:37:51;;;;;;;4.93;2.13;;;;;;;18.28;76.30;100333.31;20811713;28;20061;-71
2022/09/23 12:47:52;;;;;;;5.63;2.30;;;;;;;18.14;76.62;100326.00;20811165;28;20111;-72
2022/09/23 12:57:53;;;;;;;5.65;2.38;;;;;;;18.03;60.51;100323.88;20811215;28;20052;-71
2022/09/23 13:07:55;;;;;;;4.45;2.15;;;;;;;17.92;58.40;100323.53;20805491;28;20081;-71
2022/09/23 13:17:56;;;;;;;5.05;2.35;;;;;;;18.04;58.81;100317.66;20800683;28;20119;-71
2022/09/23 13:27:57;;;;;;;6.22;2.25;;;;;;;18.25;56.99;100310.44;20802267;28;20080;-71
2022/09/23 13:37:58;;;;;;;4.57;2.03;;;;;;;18.50;56.63;100294.22;20803021;28;20076;-71
2022/09/23 13:48:00;;;;;;;6.10;2.30;;;;;;;18.73;55.20;100277.13;20800920;28;20053;-70
2022/09/23 13:58:01;;;;;;;5.30;2.17;;;;;;;18.77;55.15;100272.53;20800758;28;20475;-70
2022/09/23 14:08:03;;;;;;;5.38;2.00;;;;;;;18.91;55.98;100259.41;20799331;28;20057;-70
2022/09/23 14:18:05;;;;;;;4.97;2.28;;;;;;;18.98;54.32;100242.25;20798453;28;20136;-71
2022/09/23 14:28:06;;;;;;;5.68;2.17;;;;;;;18.97;55.35;100235.19;20816003;28;20140;-71
2022/09/23 14:48:27;;;;;;;5.05;1.98;;;;;;;18.57;55.03;100242.56;20794382;28;20057;-71
2022/09/23 14:58:29;;;;;;;6.45;2.70;;;;;;;18.47;57.02;100238.66;20812869;28;21319;-71
2022/09/23 15:08:31;;;;;;;5.85;2.40;;;;;;;18.39;57.59;100230.25;20812346;22;20148;-77
2022/09/23 15:18:33;;;;;;;5.22;2.30;;;;;;;18.20;58.71;100240.91;20794996;28;20136;-74
2022/09/23 15:28:34;;;;;;;6.60;2.65;;;;;;;18.08;60.91;100229.13;20797605;28;20392;-74
2022/09/23 15:38:35;;;;;;;4.47;2.60;;;;;;;17.82;63.97;100219.84;20756652;28;20052;-74
2022/09/23 15:48:37;;;;;;;5.20;3.08;;;;;;;17.61;64.83;100221.66;20773464;28;20084;-77
2022/09/23 15:58:38;;;;;;;8.68;4.88;;;;;;;17.42;65.75;100207.59;20799007;28;20498;-75
2022/09/23 16:08:41;;;;;;;8.43;3.70;;;;;;;17.31;66.00;100204.59;20798777;28;20153;-75
2022/09/23 16:18:42;;;;;;;8.88;3.22;;;;;;;17.07;66.13;100207.44;20761261;28;20092;-74
2022/09/23 16:28:44;;;;;;;7.05;4.00;;;;;;;16.96;67.55;100206.19;20783953;28;20600;-74
2022/09/23 16:38:46;;;;;;;6.93;3.00;;;;;;;16.70;67.95;100197.59;20789488;28;20096;-75
2022/09/23 16:48:48;;;;;;;5.68;2.80;;;;;;;16.40;75.48;100197.16;20782382;28;20089;-75
2022/09/23 16:58:53;;;;;;;5.35;3.13;;;;;;;16.05;82.44;100204.81;20768968;28;20053;-75
2022/09/23 17:08:54;;;;;;;6.35;3.40;;;;;;;15.59;87.56;100219.81;20755893;28;20514;-75
2022/09/23 17:18:55;;;;;;;7.93;3.40;;;;;;;15.28;92.14;100206.06;20762272;28;20704;-74
2022/09/23 17:28:58;;;;;;;7.30;3.33;;;;;;;14.87;100.00;100211.13;20719805;28;20073;-75
2022/09/23 17:38:59;;;;;;;9.90;3.65;;;;;;;14.78;100.00;100212.31;20782256;28;20597;-75
2022/09/23 17:49:02;;;;;;;8.93;3.40;;;;;;;14.72;100.00;100206.41;20802655;28;20057;-75
2022/09/23 17:59:04;;;;;;;7.20;3.15;;;;;;;14.59;100.00;100190.16;20807713;28;20111;-75
2022/09/23 18:09:05;;;;;;;5.85;3.03;;;;;;;14.34;100.00;100191.00;20818266;28;20049;-74
2022/09/23 18:19:07;;;;;;;6.35;3.72;;;;;;;14.24;100.00;100178.22;20818418;28;20068;-74
2022/09/23 18:29:08;;;;;;;8.15;3.80;;;;;;;14.08;100.00;100194.53;20818532;28;20149;-73
2022/09/23 18:39:10;;;;;;;7.70;4.03;;;;;;;13.98;100.00;100192.22;20812531;28;20148;-74
2022/09/23 18:59:32;;;;;;;8.15;3.53;;;;;;;13.75;100.00;100195.59;20815471;28;20046;-74
2022/09/23 19:09:33;;;;;;;8.23;3.78;;;;;;;13.63;100.00;100185.50;20813827;28;20349;-74
2022/09/23 19:19:34;;;;;;;7.55;4.20;;;;;;;13.37;100.00;100196.81;20814067;28;20117;-74
2022/09/23 19:29:38;;;;;;;9.10;5.18;;;;;;;13.09;100.00;100190.59;20813884;28;20077;-74
2022/09/23 19:39:39;;;;;;;10.40;5.70;;;;;;;12.99;100.00;100185.66;20813490;28;20045;-74
2022/09/23 19:49:41;;;;;;;9.90;5.97;;;;;;;12.89;100.00;100184.16;20810635;28;20119;-74
2022/09/23 19:59:42;;;;;;;10.90;6.13;;;;;;;12.84;100.00;100173.81;20812293;28;20077;-74
2022/09/23 20:09:43;;;;;;;11.05;6.47;;;;;;;12.45;100.00;100165.25;20810122;28;20207;-74
2022/09/23 20:19:45;;;;;;;10.90;5.45;;;;;;;12.30;100.00;100161.28;20807558;28;20144;-75
2022/09/23 20:29:47;;;;;;;13.20;6.13;;;;;;;12.21;100.00;100166.78;20808924;28;20394;-74
2022/09/23 20:39:48;;;;;;;9.65;6.38;;;;;;;12.12;100.00;100164.38;20805636;28;20541;-74
2022/09/23 20:49:49;;;;;;;12.13;6.10;;;;;;;12.02;100.00;100156.75;20806063;28;20151;-74
2022/09/23 20:59:51;;;;;;;8.40;5.38;;;;;;;11.89;100.00;100157.13;20847291;22;20037;-68
2022/09/23 21:09:52;;;;;;;9.13;5.90;;;;;;;11.82;100.00;100154.63;20804167;28;20085;-68
2022/09/23 21:19:53;;;;;;;11.45;7.07;;;;;;;11.85;100.00;100158.09;20803347;28;20132;-65
2022/09/23 21:29:54;;;;;;;16.10;7.88;;;;;;;11.80;100.00;100161.66;20804576;28;20123;-67
2022/09/23 21:50:16;;;;;;;10.43;6.88;;;;;;;11.59;100.00;100162.16;20803989;28;20053;-66
2022/09/23 22:00:17;;;;;;;12.25;6.50;;;;;;;11.60;100.00;100163.03;20801380;28;20073;-67
2022/09/23 22:10:18;;;;;;;16.27;6.75;;;;;;;11.55;100.00;100155.28;20804711;28;20053;-66
2022/09/23 22:20:20;;;;;;;11.88;7.32;;;;;;;11.40;100.00;100169.59;20804954;28;20176;-67
2022/09/23 22:40:59;;;;;;;10.85;6.65;;;;;;;11.42;100.00;100146.81;20805195;28;20064;-67
2022/09/23 22:51:00;;;;;;;11.85;7.90;;;;;;;11.45;100.00;100132.78;20818864;28;20429;-67
2022/09/23 23:01:01;;;;;;;11.80;7.07;;;;;;;11.47;100.00;100131.00;20818137;28;20065;-68
2022/09/23 23:11:04;;;;;;;9.18;6.38;;;;;;;11.51;100.00;100115.16;20816949;28;20104;-67
2022/09/23 23:21:06;;;;;;;13.82;7.55;;;;;;;11.60;100.00;100121.09;20816147;28;20073;-67
2022/09/23 23:31:07;;;;;;;11.52;6.97;;;;;;;11.53;100.00;100115.09;20816511;28;20053;-67
2022/09/23 23:41:11;;;;;;;12.13;9.32;;;;;;;11.47;100.00;100108.25;20815207;28;20110;-67
2022/09/23 23:51:13;;;;;;;15.57;8.50;;;;;;;11.43;100.00;100097.88;20815535;28;20137;-67
